Time;durP1;ratioP1;P1;durP2;ratioP2;P2;SDS_P1;SDS_P2;PMS_P1;PMS_P2;Temp;Humidity;BMP_temperature;BMP_pressure;BME280_temperature;BME280_humidity;BME280_pressure;Samples;Min_cycle;Max_cycle;Signal;HPM_P1;HPM_P2
2023/07/01 00:01:49;;;;;;;5.20;3.90;;;17.30;99.90;;;;;;4976708;28;94363;-37
2023/07/01 00:04:15;;;;;;;9.20;4.28;;;17.20;99.90;;;;;;4977254;28;92346;-36
2023/07/01 00:06:43;;;;;;;4.38;3.97;;;17.30;99.90;;;;;;4976019;28;93794;-35
2023/07/01 00:09:10;;;;;;;7.95;4.10;;;17.30;99.90;;;;;;4976311;28;95313;-35
2023/07/01 00:11:36;;;;;;;6.97;3.95;;;17.30;99.90;;;;;;4976841;28;97133;-34
2023/07/01 00:14:02;;;;;;;4.63;3.70;;;17.30;99.90;;;;;;4976388;28;93524;-33
2023/07/01 00:16:28;;;;;;;4.95;3.63;;;17.30;99.90;;;;;;4958878;28;93699;-38
2023/07/01 00:18:53;;;;;;;8.20;3.85;;;17.30;99.90;;;;;;4975677;28;94962;-39
2023/07/01 00:21:19;;;;;;;5.88;3.42;;;17.20;99.90;;;;;;4976497;28;94922;-38
2023/07/01 00:23:45;;;;;;;4.40;3.40;;;17.30;99.90;;;;;;4976543;28;92963;-34
2023/07/01 00:26:11;;;;;;;7.70;4.25;;;17.30;99.90;;;;;;4976137;28;91456;-34
2023/07/01 00:28:36;;;;;;;9.02;4.18;;;17.30;99.90;;;;;;4976603;28;94624;-35
2023/07/01 00:31:02;;;;;;;8.13;4.22;;;17.30;99.90;;;;;;4975589;28;94852;-36
2023/07/01 00:33:27;;;;;;;7.40;3.90;;;17.30;99.90;;;;;;4974525;28;93300;-35
2023/07/01 00:35:53;;;;;;;6.95;3.63;;;17.30;99.90;;;;;;4962392;28;93486;-34
2023/07/01 00:38:19;;;;;;;4.82;3.60;;;17.30;99.90;;;;;;4975026;28;94713;-35
2023/07/01 00:40:44;;;;;;;5.22;3.70;;;17.30;99.90;;;;;;4976379;28;94671;-33
2023/07/01 00:43:10;;;;;;;6.97;4.10;;;17.30;99.90;;;;;;4975668;28;92435;-34
2023/07/01 00:45:35;;;;;;;7.60;4.07;;;17.30;99.90;;;;;;4976920;28;94145;-34
2023/07/01 00:48:01;;;;;;;7.78;3.58;;;17.30;99.90;;;;;;4975126;28;93738;-38
2023/07/01 00:50:27;;;;;;;7.45;4.03;;;17.30;99.90;;;;;;4976105;28;94471;-39
2023/07/01 00:52:53;;;;;;;9.77;4.15;;;17.30;99.90;;;;;;4976104;28;94705;-34
2023/07/01 00:55:19;;;;;;;7.15;4.00;;;17.30;99.90;;;;;;4974087;28;92139;-35
2023/07/01 00:57:45;;;;;;;10.07;3.95;;;17.30;99.90;;;;;;4975728;28;95541;-36
2023/07/01 01:00:11;;;;;;;4.35;3.63;;;17.30;99.90;;;;;;4974495;28;96937;-35
2023/07/01 01:03:21;;;;;;;10.95;3.08;;;17.30;99.90;;;;;;4975667;28;94044;-38
2023/07/01 01:06:07;;;;;;;6.90;3.53;;;17.30;99.90;;;;;;4969125;28;93940;-37
2023/07/01 01:08:57;;;;;;;3.97;3.05;;;17.30;99.90;;;;;;4964867;28;94694;-35
2023/07/01 01:11:25;;;;;;;6.20;3.25;;;17.30;99.90;;;;;;4974989;28;94049;-34
2023/07/01 01:13:51;;;;;;;8.93;4.30;;;17.30;99.90;;;;;;4975807;28;92840;-34
2023/07/01 01:16:17;;;;;;;7.45;3.50;;;17.30;99.90;;;;;;4975834;28;92474;-36
2023/07/01 01:18:45;;;;;;;5.55;3.47;;;17.30;99.90;;;;;;4975410;28;94876;-36
2023/07/01 01:21:13;;;;;;;5.37;3.67;;;17.40;99.90;;;;;;4975892;28;94429;-39
2023/07/01 01:23:45;;;;;;;8.57;3.75;;;17.40;99.90;;;;;;4975174;28;94246;-39
2023/07/01 01:26:18;;;;;;;4.63;3.60;;;17.40;99.90;;;;;;4975580;28;92195;-35
2023/07/01 01:28:43;;;;;;;6.20;3.80;;;17.40;99.90;;;;;;4974941;28;95255;-36
2023/07/01 01:31:11;;;;;;;4.97;2.75;;;17.50;99.90;;;;;;4974874;28;94046;-38
2023/07/01 01:33:38;;;;;;;8.32;4.28;;;17.40;99.90;;;;;;4975627;28;92121;-36
2023/07/01 01:36:29;;;;;;;5.63;3.78;;;17.40;99.90;;;;;;4975321;28;93192;-32
2023/07/01 01:39:05;;;;;;;5.38;4.03;;;17.40;99.90;;;;;;4975025;28;94281;-34
2023/07/01 01:41:54;;;;;;;11.45;4.05;;;17.50;99.90;;;;;;4976744;28;93117;-36
2023/07/01 01:44:27;;;;;;;6.10;3.50;;;17.50;99.90;;;;;;4976300;28;93249;-34
2023/07/01 01:46:54;;;;;;;6.60;4.13;;;17.50;99.90;;;;;;4957784;28;93692;-39
2023/07/01 01:49:20;;;;;;;5.68;3.72;;;17.50;99.90;;;;;;4957078;28;95533;-35
2023/07/01 01:51:46;;;;;;;9.43;4.22;;;17.50;99.90;;;;;;4975168;28;95328;-35
2023/07/01 01:54:13;;;;;;;8.52;3.85;;;17.60;99.90;;;;;;4978810;28;93835;-36
2023/07/01 01:56:40;;;;;;;8.85;5.18;;;17.60;99.90;;;;;;4978879;28;93170;-33
2023/07/01 01:59:05;;;;;;;5.60;4.32;;;17.60;99.90;;;;;;4978562;28;94282;-36
2023/07/01 02:01:31;;;;;;;6.68;4.20;;;17.60;99.90;;;;;;4978683;28;96008;-38
2023/07/01 02:03:57;;;;;;;14.02;4.35;;;17.60;99.90;;;;;;4978482;28;93462;-36
2023/07/01 02:06:22;;;;;;;7.30;4.53;;;17.60;99.90;;;;;;4978313;28;92634;-38
2023/07/01 02:08:48;;;;;;;6.18;4.03;;;17.60;99.90;;;;;;4978565;28;94228;-34
2023/07/01 02:11:13;;;;;;;4.43;4.00;;;17.60;99.90;;;;;;4976111;28;93659;-36
2023/07/01 02:13:39;;;;;;;6.57;4.90;;;17.60;99.90;;;;;;4978788;28;95408;-37
2023/07/01 02:16:05;;;;;;;7.38;5.40;;;17.60;99.90;;;;;;4978446;28;92914;-33
2023/07/01 02:18:30;;;;;;;10.88;4.68;;;17.50;99.90;;;;;;4976042;28;95595;-37
2023/07/01 02:20:56;;;;;;;10.00;5.32;;;17.50;99.90;;;;;;4977924;28;95812;-35
2023/07/01 02:23:22;;;;;;;13.77;4.20;;;17.50;99.90;;;;;;4977668;28;94323;-37
2023/07/01 02:25:47;;;;;;;5.30;4.03;;;17.50;99.90;;;;;;4978851;28;92179;-37
2023/07/01 02:28:13;;;;;;;8.02;4.25;;;17.50;99.90;;;;;;4978078;28;94783;-39
2023/07/01 02:30:39;;;;;;;5.28;4.38;;;17.40;99.90;;;;;;4978048;28;94167;-35
2023/07/01 02:33:05;;;;;;;6.57;4.57;;;17.50;99.90;;;;;;4976595;28;93268;-36
2023/07/01 02:35:30;;;;;;;8.25;4.65;;;17.40;99.90;;;;;;4977471;28;94759;-37
2023/07/01 02:37:56;;;;;;;6.63;4.18;;;17.30;99.90;;;;;;4977512;28;95559;-34
2023/07/01 02:40:21;;;;;;;8.63;3.92;;;17.30;99.90;;;;;;4975771;28;94994;-37
2023/07/01 02:42:47;;;;;;;5.15;4.68;;;17.20;99.90;;;;;;4977972;28;93209;-35
2023/07/01 02:45:13;;;;;;;4.95;3.63;;;17.10;99.90;;;;;;4977392;28;94951;-33
2023/07/01 02:47:39;;;;;;;6.85;4.38;;;17.10;99.90;;;;;;4978048;28;94138;-40
2023/07/01 02:50:05;;;;;;;7.80;4.82;;;17.00;99.90;;;;;;4977430;28;94554;-35
2023/07/01 02:52:31;;;;;;;6.97;4.10;;;17.00;99.90;;;;;;4977801;28;93036;-35
2023/07/01 02:54:56;;;;;;;7.93;4.75;;;17.10;99.90;;;;;;4978134;28;93948;-33
2023/07/01 02:57:22;;;;;;;9.98;4.63;;;17.00;99.90;;;;;;4977153;28;94106;-36
2023/07/01 02:59:48;;;;;;;5.25;4.75;;;17.00;99.90;;;;;;4977622;28;94322;-34
2023/07/01 03:02:14;;;;;;;8.10;4.55;;;16.90;99.90;;;;;;4977587;28;94367;-36
2023/07/01 03:04:40;;;;;;;4.82;3.92;;;16.90;99.90;;;;;;4976260;28;93043;-34
2023/07/01 03:07:06;;;;;;;4.55;4.15;;;16.90;99.90;;;;;;4976474;28;95239;-39
2023/07/01 03:09:31;;;;;;;5.78;5.07;;;16.90;99.90;;;;;;4976590;28;94369;-35
2023/07/01 03:11:57;;;;;;;6.90;4.93;;;16.80;99.90;;;;;;4978723;28;93839;-34
2023/07/01 03:14:23;;;;;;;6.50;4.05;;;16.90;99.90;;;;;;4976095;28;94996;-32
2023/07/01 03:16:52;;;;;;;7.45;4.32;;;16.90;99.90;;;;;;4976314;28;95072;-40
2023/07/01 03:19:17;;;;;;;6.85;4.75;;;16.80;99.90;;;;;;4977162;28;94437;-33
2023/07/01 03:21:44;;;;;;;5.25;4.43;;;16.80;99.90;;;;;;4978313;28;93831;-34
2023/07/01 03:24:09;;;;;;;9.27;4.53;;;16.80;99.90;;;;;;4976233;28;93956;-36
2023/07/01 03:26:35;;;;;;;6.80;4.57;;;16.80;99.90;;;;;;4959448;28;96219;-36
2023/07/01 03:29:01;;;;;;;8.38;4.45;;;16.80;99.90;;;;;;4976875;28;97340;-35
2023/07/01 03:31:27;;;;;;;9.50;4.43;;;16.80;99.90;;;;;;4977337;28;93540;-35
2023/07/01 03:33:53;;;;;;;7.40;5.70;;;16.80;99.90;;;;;;4959294;28;93788;-34
2023/07/01 03:36:19;;;;;;;8.45;4.60;;;16.80;99.90;;;;;;4975381;28;94862;-33
2023/07/01 03:38:45;;;;;;;4.97;4.57;;;16.80;99.90;;;;;;4976880;28;93986;-35
2023/07/01 03:41:11;;;;;;;4.22;3.75;;;16.70;99.90;;;;;;4977338;28;93785;-35
2023/07/01 03:43:36;;;;;;;7.97;5.78;;;16.70;99.90;;;;;;4959264;28;92724;-39
2023/07/01 03:46:02;;;;;;;8.82;5.97;;;16.60;99.90;;;;;;4959530;28;95417;-33
2023/07/01 03:48:28;;;;;;;9.05;5.13;;;16.50;99.90;;;;;;4976057;28;94273;-34
2023/07/01 03:50:54;;;;;;;7.20;4.93;;;16.40;99.90;;;;;;4977189;28;93107;-37
2023/07/01 03:53:20;;;;;;;6.13;5.22;;;16.40;99.90;;;;;;4976031;28;92273;-35
2023/07/01 03:55:47;;;;;;;5.38;4.72;;;16.40;99.90;;;;;;4975122;28;94805;-37
2023/07/01 03:58:21;;;;;;;5.80;4.80;;;16.30;99.90;;;;;;4976733;28;95219;-36
2023/07/01 04:00:48;;;;;;;7.47;4.40;;;16.20;99.90;;;;;;4975944;28;94558;-34
2023/07/01 04:03:13;;;;;;;6.18;4.88;;;16.20;99.90;;;;;;4976629;28;93717;-34
2023/07/01 04:05:39;;;;;;;7.57;5.18;;;16.10;99.90;;;;;;4977015;28;95335;-34
2023/07/01 04:08:05;;;;;;;7.07;4.13;;;16.00;99.90;;;;;;4975617;28;94541;-39
2023/07/01 04:10:30;;;;;;;10.93;5.53;;;16.10;99.90;;;;;;4977051;28;92167;-34
2023/07/01 04:12:58;;;;;;;4.68;4.13;;;16.00;99.90;;;;;;4976023;28;93923;-34
2023/07/01 04:15:24;;;;;;;5.95;4.30;;;16.10;99.90;;;;;;4975284;28;95342;-36
2023/07/01 04:17:51;;;;;;;7.70;5.15;;;16.00;99.90;;;;;;4959994;28;94846;-38
2023/07/01 04:20:21;;;;;;;8.23;5.80;;;15.80;99.90;;;;;;4976482;28;94669;-37
2023/07/01 04:22:47;;;;;;;9.82;5.10;;;15.80;99.90;;;;;;4975152;28;94733;-34
2023/07/01 04:25:13;;;;;;;8.15;5.45;;;15.80;99.90;;;;;;4975845;28;94885;-36
2023/07/01 04:27:39;;;;;;;6.55;5.88;;;15.80;99.90;;;;;;4975811;28;94435;-34
2023/07/01 04:30:08;;;;;;;5.20;4.45;;;15.70;99.90;;;;;;4977011;28;92550;-33
2023/07/01 04:32:34;;;;;;;7.80;5.90;;;15.70;99.90;;;;;;4976395;28;93098;-34
2023/07/01 04:35:00;;;;;;;11.45;5.32;;;15.80;99.90;;;;;;4975359;28;95212;-36
2023/07/01 04:40:13;;;;;;;7.75;4.80;;;15.70;99.90;;;;;;4895859;28;94403;-39
2023/07/01 04:42:48;;;;;;;5.72;5.25;;;15.70;99.90;;;;;;4898755;28;92264;-36
2023/07/01 04:45:14;;;;;;;7.32;5.40;;;15.60;99.90;;;;;;4897121;28;94670;-36
2023/07/01 04:47:40;;;;;;;7.53;5.60;;;15.70;99.90;;;;;;4897815;28;94062;-36
2023/07/01 04:50:06;;;;;;;5.88;5.05;;;15.70;99.90;;;;;;4898378;28;94240;-37
2023/07/01 04:52:32;;;;;;;5.97;4.85;;;15.60;99.90;;;;;;4897720;28;93657;-34
2023/07/01 04:54:58;;;;;;;10.10;5.60;;;15.60;99.90;;;;;;4898135;28;93950;-37
2023/07/01 04:57:23;;;;;;;11.00;4.88;;;15.60;99.90;;;;;;4897979;28;94357;-33
2023/07/01 04:59:49;;;;;;;4.95;4.55;;;15.70;99.90;;;;;;4898516;28;92754;-34
2023/07/01 05:02:14;;;;;;;7.82;6.13;;;15.60;99.90;;;;;;4880682;28;94432;-33
2023/07/01 05:04:40;;;;;;;7.72;5.13;;;15.70;99.90;;;;;;4897251;28;96479;-34
2023/07/01 05:07:06;;;;;;;4.80;4.35;;;15.70;99.90;;;;;;4887316;28;95137;-39
2023/07/01 05:09:31;;;;;;;7.53;5.93;;;15.60;99.90;;;;;;4897465;28;93821;-34
2023/07/01 05:11:57;;;;;;;6.15;5.55;;;15.60;99.90;;;;;;4897990;28;93526;-34
2023/07/01 05:14:22;;;;;;;12.13;4.90;;;15.60;99.90;;;;;;4897577;28;95304;-35
2023/07/01 05:16:48;;;;;;;9.00;5.03;;;15.70;99.90;;;;;;4897951;28;93847;-39
2023/07/01 05:19:14;;;;;;;5.75;5.20;;;15.70;99.90;;;;;;4898056;28;92200;-35
2023/07/01 05:21:49;;;;;;;7.32;5.20;;;15.70;99.90;;;;;;4897666;28;93650;-33
2023/07/01 05:24:15;;;;;;;5.70;4.82;;;15.70;99.90;;;;;;4879283;28;94610;-37
2023/07/01 05:26:44;;;;;;;10.30;5.40;;;15.80;99.90;;;;;;4897954;28;96793;-36
2023/07/01 05:29:10;;;;;;;6.68;4.88;;;15.80;99.90;;;;;;4900395;28;94924;-34
2023/07/01 05:31:36;;;;;;;5.50;4.43;;;15.80;99.90;;;;;;4900972;28;94586;-39
2023/07/01 05:34:01;;;;;;;6.25;5.32;;;15.90;99.90;;;;;;4900786;28;94210;-34
2023/07/01 05:36:27;;;;;;;6.80;5.38;;;15.90;99.90;;;;;;4900675;28;94660;-37
2023/07/01 05:38:52;;;;;;;7.70;4.75;;;15.90;99.90;;;;;;4900921;28;94115;-33
2023/07/01 05:41:18;;;;;;;10.13;5.07;;;15.90;99.90;;;;;;4900785;28;92559;-34
2023/07/01 05:43:44;;;;;;;6.60;4.65;;;16.00;99.90;;;;;;4900304;28;94951;-38
2023/07/01 05:46:09;;;;;;;8.30;6.13;;;16.00;99.90;;;;;;4900374;28;93448;-38
2023/07/01 05:48:35;;;;;;;6.38;4.78;;;16.00;99.90;;;;;;4901007;28;94881;-37
2023/07/01 05:51:00;;;;;;;5.63;4.63;;;16.00;99.90;;;;;;4901049;28;93829;-34
2023/07/01 05:53:26;;;;;;;7.47;5.95;;;16.10;99.90;;;;;;4896654;28;96953;-37
2023/07/01 05:55:51;;;;;;;5.85;5.30;;;16.10;99.90;;;;;;4898669;28;95954;-33
2023/07/01 05:58:17;;;;;;;7.05;5.00;;;16.10;99.90;;;;;;4897922;28;92308;-35
2023/07/01 06:00:44;;;;;;;5.85;5.28;;;16.20;99.90;;;;;;4898875;28;93360;-40
2023/07/01 06:03:11;;;;;;;7.10;4.90;;;16.20;99.90;;;;;;4897678;28;96787;-38
2023/07/01 06:05:37;;;;;;;6.00;4.75;;;16.20;99.90;;;;;;4898447;28;94974;-35
2023/07/01 06:08:03;;;;;;;6.22;5.32;;;16.30;99.90;;;;;;4908136;28;92929;-35
2023/07/01 06:10:28;;;;;;;8.48;5.30;;;16.30;99.90;;;;;;4898442;28;92382;-38
2023/07/01 06:12:54;;;;;;;11.68;5.65;;;16.40;99.90;;;;;;4897990;28;94580;-37
2023/07/01 06:15:19;;;;;;;5.50;4.65;;;16.50;99.90;;;;;;4897991;28;93967;-34
2023/07/01 06:17:45;;;;;;;5.63;5.15;;;16.50;99.90;;;;;;4897523;28;93802;-34
2023/07/01 06:20:11;;;;;;;5.95;5.00;;;16.50;99.90;;;;;;4898360;28;92422;-36
2023/07/01 06:22:36;;;;;;;5.97;5.10;;;16.50;99.90;;;;;;4897519;28;94672;-37
2023/07/01 06:25:02;;;;;;;7.68;5.55;;;16.50;99.90;;;;;;4881309;28;93481;-34
2023/07/01 06:27:28;;;;;;;6.85;4.97;;;16.50;99.90;;;;;;4897771;28;94590;-36
2023/07/01 06:29:53;;;;;;;8.18;5.25;;;16.50;99.90;;;;;;4897546;28;94219;-41
2023/07/01 06:32:19;;;;;;;6.85;6.15;;;16.50;99.90;;;;;;4897965;28;94805;-33
2023/07/01 06:34:46;;;;;;;5.25;4.80;;;16.40;99.90;;;;;;4898011;28;94429;-34
2023/07/01 06:37:11;;;;;;;9.07;5.65;;;16.50;99.90;;;;;;4898196;28;93113;-34
2023/07/01 06:39:37;;;;;;;6.47;5.97;;;16.40;99.90;;;;;;4897854;28;92553;-34
2023/07/01 06:42:03;;;;;;;6.35;5.72;;;16.40;99.90;;;;;;4897692;28;95622;-34
2023/07/01 06:44:28;;;;;;;7.47;5.95;;;16.40;99.90;;;;;;4897428;28;95911;-34
2023/07/01 06:46:54;;;;;;;7.32;6.22;;;16.40;99.90;;;;;;4897794;28;92159;-37
2023/07/01 06:49:19;;;;;;;10.70;6.72;;;16.30;99.90;;;;;;4898234;28;93315;-34
2023/07/01 06:51:45;;;;;;;7.30;6.10;;;16.40;99.90;;;;;;4880276;28;94557;-35
2023/07/01 06:54:11;;;;;;;7.10;6.38;;;16.40;99.90;;;;;;4897821;28;95018;-34
2023/07/01 06:56:37;;;;;;;10.80;7.55;;;16.40;99.90;;;;;;4897800;28;94279;-36
2023/07/01 06:59:03;;;;;;;10.80;7.07;;;16.40;99.90;;;;;;4897773;28;91598;-38
2023/07/01 07:01:29;;;;;;;11.48;6.93;;;16.30;99.90;;;;;;4897127;28;94285;-38
2023/07/01 07:03:55;;;;;;;7.32;6.60;;;16.30;99.90;;;;;;4897551;28;94531;-33
2023/07/01 07:06:20;;;;;;;9.55;7.43;;;16.30;99.90;;;;;;4897329;28;95400;-40
2023/07/01 07:08:46;;;;;;;7.03;6.28;;;16.30;99.90;;;;;;4897451;28;94782;-35
2023/07/01 07:11:12;;;;;;;9.23;7.30;;;16.30;99.90;;;;;;4896149;28;94525;-36
2023/07/01 07:13:37;;;;;;;10.07;6.82;;;16.30;99.90;;;;;;4897190;28;94956;-34
2023/07/01 07:16:03;;;;;;;8.45;7.50;;;16.30;99.90;;;;;;4897572;28;93045;-37
2023/07/01 07:18:29;;;;;;;8.98;6.28;;;16.30;99.90;;;;;;4879477;28;93293;-38
2023/07/01 07:20:55;;;;;;;6.45;5.88;;;16.30;99.90;;;;;;4896538;28;96518;-36
2023/07/01 07:23:20;;;;;;;8.10;7.10;;;16.30;99.90;;;;;;4897026;28;94331;-34
2023/07/01 07:25:46;;;;;;;7.03;6.25;;;16.30;99.90;;;;;;4897210;28;92180;-36
2023/07/01 07:28:12;;;;;;;8.77;7.10;;;16.30;99.90;;;;;;4879079;28;93474;-36
2023/07/01 07:30:38;;;;;;;8.73;6.55;;;16.30;99.90;;;;;;4896593;28;95466;-37
2023/07/01 07:33:03;;;;;;;8.25;7.30;;;16.30;99.90;;;;;;4896451;28;95721;-33
2023/07/01 07:35:29;;;;;;;8.20;7.45;;;16.40;99.90;;;;;;4896442;28;95173;-38
2023/07/01 07:37:55;;;;;;;9.25;6.68;;;16.30;99.90;;;;;;4896427;28;94942;-35
2023/07/01 07:40:20;;;;;;;8.30;7.38;;;16.40;99.90;;;;;;4896195;28;95246;-38
2023/07/01 07:42:46;;;;;;;7.22;6.53;;;16.50;99.90;;;;;;4897258;28;94121;-37
2023/07/01 07:45:12;;;;;;;8.45;6.38;;;16.50;99.90;;;;;;4896516;28;93505;-35
2023/07/01 07:47:38;;;;;;;7.97;7.18;;;16.50;99.90;;;;;;4898234;28;93137;-37
2023/07/01 07:50:04;;;;;;;7.70;6.68;;;16.50;99.90;;;;;;4894818;28;95199;-35
2023/07/01 07:52:30;;;;;;;7.70;6.93;;;16.50;99.90;;;;;;4895125;28;94140;-38
2023/07/01 07:54:55;;;;;;;11.30;7.65;;;16.50;99.90;;;;;;4896371;28;95243;-33
2023/07/01 07:57:21;;;;;;;7.55;6.85;;;16.60;99.90;;;;;;4895671;28;92999;-36
2023/07/01 07:59:46;;;;;;;7.43;6.78;;;16.50;99.90;;;;;;4883664;28;95243;-37
2023/07/01 08:02:12;;;;;;;7.55;6.85;;;16.50;99.90;;;;;;4895595;28;94662;-37
2023/07/01 08:04:38;;;;;;;6.78;6.13;;;16.60;99.90;;;;;;4895826;28;93750;-35
2023/07/01 08:07:04;;;;;;;7.18;6.45;;;16.60;99.90;;;;;;4896185;28;93103;-33
2023/07/01 08:09:30;;;;;;;7.45;6.38;;;16.60;99.90;;;;;;4894543;28;95056;-34
2023/07/01 08:11:59;;;;;;;7.10;6.35;;;16.60;99.90;;;;;;4895930;28;94299;-34
2023/07/01 08:14:26;;;;;;;7.78;6.35;;;16.70;99.90;;;;;;4895291;28;92187;-34
2023/07/01 08:16:54;;;;;;;10.32;6.60;;;16.70;99.90;;;;;;4895373;28;93248;-35
2023/07/01 08:19:19;;;;;;;7.90;7.10;;;16.70;99.90;;;;;;4893699;28;95755;-34
2023/07/01 08:21:45;;;;;;;7.40;6.38;;;16.70;99.90;;;;;;4895373;28;95435;-36
2023/07/01 08:24:11;;;;;;;8.50;6.97;;;16.70;99.90;;;;;;4894918;28;93837;-37
2023/07/01 08:26:36;;;;;;;7.03;6.32;;;16.80;99.90;;;;;;4878283;28;93261;-37
2023/07/01 08:29:03;;;;;;;7.35;6.65;;;16.80;99.90;;;;;;4895866;28;95578;-35
2023/07/01 08:31:31;;;;;;;11.27;7.45;;;16.80;99.90;;;;;;4895291;28;94604;-36
2023/07/01 08:33:57;;;;;;;7.15;6.47;;;16.80;99.90;;;;;;4896425;28;93204;-38
2023/07/01 08:36:23;;;;;;;6.68;6.07;;;16.80;99.90;;;;;;4896251;28;92278;-39
2023/07/01 08:38:48;;;;;;;7.07;5.93;;;16.80;99.90;;;;;;4894702;28;94571;-39
2023/07/01 08:41:16;;;;;;;7.05;6.45;;;16.80;99.90;;;;;;4878012;28;94553;-36
2023/07/01 08:43:44;;;;;;;6.40;5.90;;;16.80;99.90;;;;;;4895816;28;94520;-33
2023/07/01 08:46:14;;;;;;;7.10;6.40;;;16.80;99.90;;;;;;4894643;28;94218;-34
2023/07/01 08:48:43;;;;;;;8.20;6.90;;;16.80;99.90;;;;;;4877060;28;95288;-34
2023/07/01 08:51:18;;;;;;;6.30;5.75;;;16.80;99.90;;;;;;4895351;28;94355;-38
2023/07/01 08:53:46;;;;;;;6.80;6.05;;;16.80;99.90;;;;;;4895946;28;92868;-33
2023/07/01 08:56:13;;;;;;;9.43;5.95;;;16.90;99.90;;;;;;4895992;28;92278;-38
2023/07/01 08:58:40;;;;;;;7.03;6.43;;;16.90;99.90;;;;;;4894988;28;94412;-38
2023/07/01 09:01:06;;;;;;;8.03;7.23;;;16.90;99.90;;;;;;4894489;28;95438;-38
2023/07/01 09:03:36;;;;;;;8.23;6.45;;;16.90;99.90;;;;;;4898428;28;94581;-40
2023/07/01 09:06:05;;;;;;;8.50;5.88;;;17.00;99.90;;;;;;4898937;28;92545;-37
2023/07/01 09:08:32;;;;;;;6.65;6.05;;;17.00;99.90;;;;;;4897765;28;96312;-39
2023/07/01 09:10:58;;;;;;;6.83;6.23;;;17.10;99.90;;;;;;4898549;28;95095;-36
2023/07/01 09:13:25;;;;;;;7.22;6.43;;;17.10;99.90;;;;;;4898519;28;93835;-35
2023/07/01 09:15:51;;;;;;;6.57;5.97;;;17.20;99.90;;;;;;4898728;28;94187;-37
2023/07/01 09:18:24;;;;;;;7.88;7.18;;;17.20;99.90;;;;;;4898276;28;94711;-37
2023/07/01 09:20:51;;;;;;;6.95;6.25;;;17.30;99.90;;;;;;4898216;28;94512;-35
2023/07/01 09:23:29;;;;;;;6.53;5.82;;;17.30;99.90;;;;;;4898642;28;94962;-36
2023/07/01 09:26:07;;;;;;;6.13;5.57;;;17.30;99.90;;;;;;4898581;28;92754;-36
2023/07/01 09:28:36;;;;;;;8.25;7.35;;;17.30;99.90;;;;;;4897728;28;96678;-36
2023/07/01 09:31:04;;;;;;;7.32;6.72;;;17.30;99.90;;;;;;4897552;28;94660;-39
2023/07/01 09:33:30;;;;;;;7.57;6.88;;;17.30;99.90;;;;;;4897439;28;94412;-33
2023/07/01 09:36:02;;;;;;;6.50;5.82;;;17.30;99.90;;;;;;4898869;28;93026;-36
2023/07/01 09:38:28;;;;;;;7.22;6.53;;;17.30;99.90;;;;;;4897417;28;94711;-40
2023/07/01 09:40:54;;;;;;;7.72;7.00;;;17.40;99.90;;;;;;4898837;28;94100;-38
2023/07/01 09:43:30;;;;;;;10.60;6.72;;;17.40;99.90;;;;;;4897492;28;93475;-36
2023/07/01 09:45:56;;;;;;;7.35;6.65;;;17.50;99.90;;;;;;4898650;28;93064;-38
2023/07/01 09:48:22;;;;;;;7.63;6.93;;;17.60;99.90;;;;;;4898475;28;96019;-33
2023/07/01 09:50:51;;;;;;;7.10;6.50;;;17.50;99.90;;;;;;4898569;28;94348;-33
2023/07/01 09:53:24;;;;;;;6.50;5.75;;;17.60;99.90;;;;;;4897488;28;92598;-34
2023/07/01 09:55:50;;;;;;;7.90;5.22;;;17.50;99.90;;;;;;4904869;28;93179;-37
2023/07/01 09:58:16;;;;;;;4.93;4.53;;;17.50;99.90;;;;;;4899234;28;96380;-35
2023/07/01 10:00:42;;;;;;;5.85;5.25;;;17.40;99.90;;;;;;4898025;28;95243;-33
2023/07/01 10:03:08;;;;;;;5.45;4.45;;;17.50;99.90;;;;;;4897959;28;94433;-38
2023/07/01 10:05:34;;;;;;;5.55;5.00;;;17.60;99.90;;;;;;4898435;28;92729;-37
2023/07/01 10:08:01;;;;;;;5.72;5.00;;;17.70;99.90;;;;;;4897978;28;94955;-34
2023/07/01 10:10:27;;;;;;;5.53;5.03;;;17.70;99.90;;;;;;4896954;28;94427;-36
2023/07/01 10:12:54;;;;;;;6.88;5.75;;;17.80;99.90;;;;;;4898516;28;93077;-33
2023/07/01 10:15:31;;;;;;;5.53;4.95;;;17.80;99.90;;;;;;4897102;28;92353;-34
2023/07/01 10:17:59;;;;;;;5.90;5.30;;;17.70;99.90;;;;;;4864001;28;95166;-37
2023/07/01 10:20:33;;;;;;;6.57;5.47;;;17.70;99.90;;;;;;4897733;28;94469;-37
2023/07/01 10:23:03;;;;;;;5.93;4.82;;;17.80;99.90;;;;;;4897726;28;94852;-35
2023/07/01 10:25:39;;;;;;;6.20;5.60;;;17.80;99.90;;;;;;4897528;28;93118;-34
2023/07/01 10:28:09;;;;;;;6.43;5.28;;;17.90;99.90;;;;;;4897619;28;94681;-34
2023/07/01 10:30:46;;;;;;;8.60;5.88;;;17.80;99.90;;;;;;4897083;28;94709;-36
2023/07/01 10:33:27;;;;;;;6.20;5.68;;;17.80;99.90;;;;;;4897260;28;93249;-36
2023/07/01 10:36:04;;;;;;;5.32;4.82;;;18.00;99.90;;;;;;4897580;28;94604;-35
2023/07/01 10:38:32;;;;;;;9.95;6.10;;;18.10;99.90;;;;;;4895921;28;94384;-37
2023/07/01 10:40:59;;;;;;;7.30;5.43;;;18.00;99.90;;;;;;4897072;28;94044;-36
2023/07/01 10:43:33;;;;;;;8.50;5.72;;;18.00;99.90;;;;;;4897821;28;94697;-33
2023/07/01 10:46:17;;;;;;;7.25;6.53;;;18.10;99.90;;;;;;4896966;28;93299;-37
2023/07/01 10:49:04;;;;;;;11.48;7.22;;;18.10;99.90;;;;;;4897168;28;97492;-34
2023/07/01 10:52:05;;;;;;;5.85;5.28;;;18.10;99.90;;;;;;4897443;28;94401;-38
2023/07/01 10:54:39;;;;;;;6.45;5.53;;;18.10;99.90;;;;;;4889508;28;92971;-36
2023/07/01 10:57:13;;;;;;;5.75;5.25;;;18.10;99.90;;;;;;4886585;28;94016;-36
2023/07/01 10:59:39;;;;;;;7.88;7.20;;;18.20;99.90;;;;;;4897125;28;96401;-39
2023/07/01 11:02:08;;;;;;;6.68;6.03;;;18.20;99.90;;;;;;4897870;28;94242;-34
2023/07/01 11:05:04;;;;;;;9.20;5.88;;;18.30;99.90;;;;;;4897438;28;93234;-37
2023/07/01 11:07:31;;;;;;;6.25;5.38;;;18.30;99.90;;;;;;4888536;28;92908;-39
2023/07/01 11:09:58;;;;;;;7.00;5.45;;;18.30;99.90;;;;;;4896729;28;94688;-38
2023/07/01 11:12:24;;;;;;;6.95;6.28;;;18.40;99.90;;;;;;4895356;28;95186;-38
2023/07/01 11:14:52;;;;;;;7.85;5.97;;;18.40;99.90;;;;;;4896955;28;94542;-34
2023/07/01 11:17:20;;;;;;;7.07;5.85;;;18.50;99.90;;;;;;4896496;28;93426;-35
2023/07/01 11:19:52;;;;;;;7.05;5.28;;;18.50;99.90;;;;;;4896400;28;94744;-39
2023/07/01 11:22:17;;;;;;;7.25;6.03;;;18.60;99.90;;;;;;4896225;28;94789;-35
2023/07/01 11:24:43;;;;;;;6.35;5.55;;;18.60;99.90;;;;;;4896459;28;92145;-34
2023/07/01 11:27:09;;;;;;;7.18;5.70;;;18.60;99.90;;;;;;4897208;28;93898;-33
2023/07/01 11:29:41;;;;;;;6.72;5.97;;;18.60;99.90;;;;;;4895634;28;95251;-36
2023/07/01 11:32:12;;;;;;;11.25;6.18;;;18.70;99.90;;;;;;4894928;28;93829;-36
2023/07/01 11:34:43;;;;;;;6.20;5.68;;;18.70;99.90;;;;;;4897361;28;94198;-37
2023/07/01 11:37:08;;;;;;;6.35;5.82;;;18.80;99.90;;;;;;4897597;28;92730;-35
2023/07/01 11:39:45;;;;;;;9.35;5.75;;;18.90;99.90;;;;;;4895072;28;95063;-37
2023/07/01 11:42:11;;;;;;;6.22;5.60;;;18.90;99.90;;;;;;4896205;28;95036;-36
2023/07/01 11:44:37;;;;;;;5.47;4.65;;;18.80;99.90;;;;;;4897598;28;93198;-35
2023/07/01 11:47:11;;;;;;;6.07;5.57;;;18.90;99.90;;;;;;4896172;28;95537;-34
2023/07/01 11:49:37;;;;;;;6.45;5.53;;;19.00;99.90;;;;;;4896363;28;95424;-35
2023/07/01 11:52:06;;;;;;;6.82;6.05;;;19.10;99.90;;;;;;4895942;28;94436;-37
2023/07/01 11:54:47;;;;;;;;;;;19.10;99.90;;;;;;4896306;28;93200;-35
2023/07/01 11:57:17;;;;;;;4.63;4.22;;;19.20;99.90;;;;;;4895580;28;92200;-37
2023/07/01 11:59:48;;;;;;;7.28;4.82;;;19.20;99.90;;;;;;4895979;28;94459;-35
2023/07/01 12:02:14;;;;;;;6.22;5.68;;;19.20;99.90;;;;;;4896712;28;95448;-33
2023/07/01 12:04:40;;;;;;;6.72;6.13;;;19.30;99.90;;;;;;4895991;28;95124;-35
2023/07/01 12:07:11;;;;;;;6.55;5.60;;;19.40;99.90;;;;;;4896623;28;94373;-39
2023/07/01 12:09:42;;;;;;;5.78;5.03;;;19.40;99.90;;;;;;4896034;28;94515;-36
2023/07/01 12:12:32;;;;;;;4.88;4.40;;;19.40;99.90;;;;;;4895275;28;94605;-38
2023/07/01 12:15:06;;;;;;;5.07;4.68;;;19.40;99.90;;;;;;4896522;28;93747;-37
2023/07/01 12:17:31;;;;;;;6.63;5.47;;;19.40;99.90;;;;;;4896423;28;92400;-35
2023/07/01 12:19:58;;;;;;;5.97;5.47;;;19.50;99.90;;;;;;4894744;28;94634;-34
2023/07/01 12:22:28;;;;;;;4.72;4.18;;;19.40;99.90;;;;;;4895834;28;94643;-34
2023/07/01 12:24:55;;;;;;;5.07;4.68;;;19.20;99.90;;;;;;4893879;28;95152;-40
2023/07/01 12:27:21;;;;;;;4.28;3.88;;;19.10;99.90;;;;;;4895515;28;94990;-34
2023/07/01 12:29:47;;;;;;;4.15;3.58;;;19.00;99.90;;;;;;4894121;28;95723;-38
2023/07/01 12:32:13;;;;;;;4.28;3.65;;;18.90;99.90;;;;;;4895628;28;95626;-34
2023/07/01 12:34:38;;;;;;;3.40;3.10;;;19.00;99.90;;;;;;4895491;28;92932;-35
2023/07/01 12:37:06;;;;;;;4.47;4.07;;;18.90;99.90;;;;;;4894584;28;93334;-34
2023/07/01 12:39:32;;;;;;;3.33;3.03;;;19.00;99.90;;;;;;4894708;28;94536;-36
2023/07/01 12:41:58;;;;;;;3.97;3.65;;;19.00;99.90;;;;;;4895283;28;94750;-36
2023/07/01 12:44:24;;;;;;;3.55;3.25;;;19.10;99.90;;;;;;4895533;28;92751;-33
2023/07/01 12:46:50;;;;;;;4.43;3.10;;;19.10;99.90;;;;;;4895856;28;93064;-39
2023/07/01 12:49:16;;;;;;;3.90;3.60;;;19.20;99.90;;;;;;4894812;28;94636;-37
2023/07/01 12:51:43;;;;;;;3.25;2.97;;;19.20;99.90;;;;;;4894972;28;95098;-36